SBPV

Governador Jorge Teixeira de Oliveira Airport

Porto Velho, Brazil
TAF SBPV 221000Z 2212/2312 03005KT 9999 SCT015 TX29/2217Z TN24/2307Z BECMG 2216/2218 06005KT SCT025 FEW030TCU PROB30 TEMPO 2219/2222 8000 TSRA SCT025 FEW040CB RMK PAZ
Issued Valid From Valid To
Jan-22 @ 10:00 UTC
(8 hours ago)
Jan-22 @ 12:00 UTC
(6 hours ago)
Jan-23 @ 12:00 UTC
(in 18 hours)
Expired Click to View Jan-22 @ 12:00 to Jan-22 @ 16:00
TAF SBPV 221000Z 2212/2312 03005KT 9999 SCT015 TX29/2217Z TN24/2307Z
Wind Visibility Clouds
30° at 5 knots 10,000+ meters
  • Scattered at 1,500' AGL
Becoming Jan-22 @ 16:00 to Jan-23 @ 12:00
BECMG 2216/2218 06005KT SCT025 FEW030TCU
Wind Visibility Clouds
60° at 5 knots 10,000+ meters
  • Scattered at 2,500' AGL
  • Few at 3,000' AGL
Temporary  (Probability 30%) Jan-22 @ 19:00 to Jan-22 @ 22:00
PROB30 TEMPO 2219/2222 8000 TSRA SCT025 FEW040CB RMK PAZ
Visibility Clouds Conditions
7,998 meters
  • Scattered at 2,500' AGL
  • Few at 4,000' AGL
  • Thunderstorm
  • Rain
TAF SBPV 221000Z 2212/2312 03005KT 9999 SCT015 TX29/2217Z TN24/2307Z BECMG 2216/2218 06005KT SCT025 FEW030TCU PROB30 TEMPO 2219/2222 8000 TSRA SCT025 FEW040CB RMK PAZ
Issued Jan-22 @ 10:00 UTC
(8 hours ago)
Valid From Jan-22 @ 12:00 UTC
(6 hours ago)
Valid To Jan-23 @ 12:00 UTC
(in 18 hours)
Jan-22 @ 12:00 - Jan-22 @ 16:00
Wind Visibility
30° at 5 knots 10,000+ meters
Clouds
  • Scattered at 1,500' AGL
Becoming Jan-22 @ 16:00 - Jan-23 @ 12:00
Wind Visibility
60° at 5 knots 10,000+ meters
Clouds
  • Scattered at 2,500' AGL
  • Few at 3,000' AGL
Probability 30% Temporary Jan-22 @ 19:00 - Jan-22 @ 22:00
Clouds
  • Scattered at 2,500' AGL
  • Few at 4,000' AGL
Conditions
  • Thunderstorm
  • Rain